createdAt,value
2023-03-05T00:00:09.751Z,96970.19
2023-03-05T00:02:13.354Z,96964.28
2023-03-05T00:04:16.840Z,96967.06
2023-03-05T00:06:21.423Z,96973.03
2023-03-05T00:08:24.227Z,96960.16
2023-03-05T00:10:27.057Z,96964.44
2023-03-05T00:12:38.677Z,96967.06
2023-03-05T00:14:41.886Z,96968.09
2023-03-05T00:16:44.665Z,96968.63
2023-03-05T00:18:48.059Z,96969.81
2023-03-05T00:20:51.045Z,96970.66
2023-03-05T00:22:55.245Z,96963.91
2023-03-05T00:24:58.258Z,96965.25
2023-03-05T00:27:01.078Z,96963.91
2023-03-05T00:29:03.991Z,96966.56
2023-03-05T00:31:06.968Z,96964.25
2023-03-05T00:33:12.783Z,96962.00
2023-03-05T00:35:15.602Z,96965.63
2023-03-05T00:37:18.694Z,96965.63
2023-03-05T00:39:23.433Z,96967.09
2023-03-05T00:41:26.567Z,96971.72
2023-03-05T00:43:29.485Z,96969.63
2023-03-05T00:45:32.887Z,96969.97
2023-03-05T00:47:36.460Z,96976.44
2023-03-05T00:49:39.450Z,96978.06
2023-03-05T00:51:42.436Z,96981.91
2023-03-05T00:53:45.423Z,96969.16
2023-03-05T00:55:49.682Z,96975.25
2023-03-05T00:57:52.532Z,96967.97
2023-03-05T00:59:55.399Z,96975.75
2023-03-05T01:01:58.456Z,96968.63
2023-03-05T01:04:01.483Z,96975.25
2023-03-05T01:06:07.922Z,96968.72
2023-03-05T01:08:10.809Z,96968.91
2023-03-05T01:10:14.148Z,96965.63
2023-03-05T01:12:18.344Z,96970.09
2023-03-05T01:14:21.806Z,96971.06
2023-03-05T01:16:24.831Z,96967.44
2023-03-05T01:18:27.691Z,96960.16
2023-03-05T01:20:30.728Z,96963.13
2023-03-05T01:22:33.510Z,96963.13
2023-03-05T01:24:36.286Z,96957.03
2023-03-05T01:26:39.296Z,96953.59
2023-03-05T01:28:43.446Z,96954.78
2023-03-05T01:30:46.281Z,96955.97
2023-03-05T01:32:49.123Z,96948.22
2023-03-05T01:34:51.900Z,96954.31
2023-03-05T01:36:54.726Z,96946.78
2023-03-05T01:38:57.866Z,96946.94
2023-03-05T01:41:00.645Z,96946.47
2023-03-05T01:43:22.674Z,96935.19
2023-03-05T01:45:27.285Z,96938.81
2023-03-05T01:47:30.803Z,96937.38
2023-03-05T01:49:37.386Z,96938.09
2023-03-05T01:51:45.890Z,96937.63
2023-03-05T01:53:49.038Z,96936.81
2023-03-05T01:55:51.830Z,96932.84
2023-03-05T01:57:56.941Z,96937.44
2023-03-05T02:00:03.929Z,96938.53
2023-03-05T02:02:08.987Z,96926.31
2023-03-05T02:04:15.712Z,96928.63
2023-03-05T02:06:18.607Z,96926.00
2023-03-05T02:08:23.423Z,96921.41
2023-03-05T02:10:28.882Z,96919.13
2023-03-05T02:12:31.994Z,96916.50
2023-03-05T02:14:35.088Z,96910.94
2023-03-05T02:16:39.248Z,96911.66
2023-03-05T02:18:43.493Z,96915.28
2023-03-05T02:20:48.255Z,96920.94
2023-03-05T02:22:52.565Z,96915.00
2023-03-05T02:24:55.463Z,96907.09
2023-03-05T02:26:58.945Z,96913.34
2023-03-05T02:29:04.194Z,96919.97
2023-03-05T02:31:10.998Z,96915.06
2023-03-05T02:33:15.861Z,96910.94
2023-03-05T02:35:18.978Z,96914.06
2023-03-05T02:37:21.791Z,96906.81
2023-03-05T02:39:26.096Z,96911.78
2023-03-05T02:41:29.107Z,96902.22
2023-03-05T02:43:32.207Z,96903.88
2023-03-05T02:45:35.056Z,96904.53
2023-03-05T02:47:38.254Z,96897.63
2023-03-05T02:49:41.168Z,96899.25
2023-03-05T02:51:44.122Z,96898.59
2023-03-05T02:53:47.017Z,96898.59
2023-03-05T02:55:51.562Z,96904.88
2023-03-05T02:57:54.524Z,96906.50
2023-03-05T02:59:57.339Z,96902.22
2023-03-05T03:02:00.271Z,96901.75
2023-03-05T03:04:03.282Z,96899.94
2023-03-05T03:06:07.052Z,96901.09
2023-03-05T03:08:10.385Z,96900.41
2023-03-05T03:10:13.758Z,96903.72
2023-03-05T03:12:18.066Z,96902.72
2023-03-05T03:14:21.305Z,96906.00
2023-03-05T03:16:24.284Z,96907.09
2023-03-05T03:18:26.204Z,96899.91
2023-03-05T03:20:29.028Z,96903.72
2023-03-05T03:22:31.925Z,96899.91
2023-03-05T03:24:36.570Z,96903.34
2023-03-05T03:26:39.489Z,96912.91
2023-03-05T03:28:43.846Z,96906.00
2023-03-05T03:30:46.681Z,96910.81
2023-03-05T03:32:49.525Z,96913.78
2023-03-05T03:34:52.116Z,96902.91
2023-03-05T03:36:55.391Z,96907.81
2023-03-05T03:38:58.295Z,96896.63
2023-03-05T03:41:01.127Z,96909.81
2023-03-05T03:43:04.142Z,96898.44
2023-03-05T03:45:09.692Z,96905.53
2023-03-05T03:47:12.470Z,96900.41
2023-03-05T03:49:17.894Z,96899.59
2023-03-05T03:51:20.997Z,96895.97
2023-03-05T03:53:23.773Z,96901.91
2023-03-05T03:55:26.704Z,96884.84
2023-03-05T03:57:30.733Z,96889.44
2023-03-05T03:59:33.546Z,96887.53
2023-03-05T04:01:38.060Z,96895.94
2023-03-05T04:03:40.943Z,96895.66
2023-03-05T04:05:43.825Z,96897.47
2023-03-05T04:07:46.702Z,96895.13
2023-03-05T04:09:49.486Z,96900.38
2023-03-05T04:11:52.286Z,96894.19
2023-03-05T04:13:55.144Z,96894.06
2023-03-05T04:15:58.300Z,96894.25
2023-03-05T04:18:02.649Z,96892.97
2023-03-05T04:20:07.266Z,96887.06
2023-03-05T04:22:12.065Z,96887.69
2023-03-05T04:24:15.236Z,96889.69
2023-03-05T04:26:18.154Z,96887.38
2023-03-05T04:28:20.939Z,96884.94
2023-03-05T04:30:23.713Z,96893.81
2023-03-05T04:32:28.512Z,96891.38
2023-03-05T04:34:32.871Z,96890.38
2023-03-05T04:36:37.007Z,96887.75
2023-03-05T04:38:39.808Z,96887.75
2023-03-05T04:40:42.596Z,96881.84
2023-03-05T04:42:45.892Z,96872.63
2023-03-05T04:44:48.964Z,96879.88
2023-03-05T04:46:52.061Z,96881.88
2023-03-05T04:48:55.121Z,96880.25
2023-03-05T04:50:59.240Z,96877.88
2023-03-05T04:53:02.190Z,96881.66
2023-03-05T04:55:05.197Z,96876.22
2023-03-05T04:57:09.139Z,96871.25
2023-03-05T04:59:12.090Z,96874.34
2023-03-05T05:01:14.940Z,96867.47
2023-03-05T05:03:17.745Z,96874.88
2023-03-05T05:05:22.408Z,96874.22
2023-03-05T05:07:26.625Z,96868.31
2023-03-05T05:09:29.433Z,96871.94
2023-03-05T05:11:32.293Z,96863.41
2023-03-05T05:13:36.062Z,96869.03
2023-03-05T05:15:41.353Z,96867.72
2023-03-05T05:17:44.299Z,96868.53
2023-03-05T05:19:47.202Z,96867.06
2023-03-05T05:21:50.186Z,96871.53
2023-03-05T05:23:54.529Z,96873.50
2023-03-05T05:25:58.667Z,96865.81
2023-03-05T05:28:01.514Z,96870.06
2023-03-05T05:30:06.072Z,96865.25
2023-03-05T05:32:09.094Z,96866.44
2023-03-05T05:34:12.161Z,96862.16
2023-03-05T05:36:19.048Z,96870.06
2023-03-05T05:38:22.778Z,96868.25
2023-03-05T05:40:26.972Z,96861.53
2023-03-05T05:42:30.142Z,96863.50
2023-03-05T05:44:34.863Z,96857.75
2023-03-05T05:46:38.143Z,96864.19
2023-03-05T05:48:41.510Z,96863.72
2023-03-05T05:50:44.324Z,96863.25
2023-03-05T05:52:47.131Z,96863.25
2023-03-05T05:54:50.227Z,96862.25
2023-03-05T05:56:54.425Z,96864.69
2023-03-05T05:58:57.275Z,96860.25
2023-03-05T06:01:00.599Z,96867.81
2023-03-05T06:03:04.124Z,96859.75
2023-03-05T06:05:08.386Z,96861.38
2023-03-05T06:07:11.277Z,96865.19
2023-03-05T06:09:14.676Z,96860.94
2023-03-05T06:11:19.406Z,96863.56
2023-03-05T06:13:23.803Z,96861.91
2023-03-05T06:15:26.624Z,96859.13
2023-03-05T06:17:31.091Z,96867.81
2023-03-05T06:19:34.113Z,96863.56
2023-03-05T06:21:37.138Z,96855.66
2023-03-05T06:23:40.297Z,96861.38
2023-03-05T06:25:43.210Z,96857.59
2023-03-05T06:27:46.060Z,96863.19
2023-03-05T06:29:53.554Z,96856.13
2023-03-05T06:31:56.419Z,96861.03
2023-03-05T06:34:02.375Z,96862.66
2023-03-05T06:36:06.485Z,96864.66
2023-03-05T06:38:10.296Z,96863.66
2023-03-05T06:40:14.352Z,96868.75
2023-03-05T06:42:19.237Z,96868.44
2023-03-05T06:44:22.034Z,96865.25
2023-03-05T06:46:28.763Z,96861.63
2023-03-05T06:48:31.626Z,96869.34
2023-03-05T06:50:35.789Z,96864.91
2023-03-05T06:52:40.960Z,96862.94
2023-03-05T06:54:43.754Z,96860.78
2023-03-05T06:56:48.143Z,96862.06
2023-03-05T06:58:53.142Z,96858.09
2023-03-05T07:00:55.973Z,96867.91
2023-03-05T07:03:00.276Z,96862.47
2023-03-05T07:05:03.273Z,96860.97
2023-03-05T07:07:06.193Z,96857.97
2023-03-05T07:09:12.450Z,96851.34
2023-03-05T07:11:17.222Z,96860.75
2023-03-05T07:13:20.002Z,96855.09
2023-03-05T07:15:22.879Z,96859.03
2023-03-05T07:17:25.780Z,96856.56
2023-03-05T07:19:30.088Z,96863.81
2023-03-05T07:21:36.049Z,96847.38
2023-03-05T07:23:40.366Z,96863.09
2023-03-05T07:25:43.262Z,96860.66
2023-03-05T07:27:45.980Z,96864.81
2023-03-05T07:29:48.789Z,96865.66
2023-03-05T07:31:51.663Z,96866.75
2023-03-05T07:33:54.441Z,96862.78
2023-03-05T07:35:58.797Z,96859.16
2023-03-05T07:38:01.684Z,96859.44
2023-03-05T07:40:05.930Z,96859.09
2023-03-05T07:42:08.933Z,96859.09
2023-03-05T07:44:11.711Z,96865.34
2023-03-05T07:46:17.507Z,96867.00
2023-03-05T07:48:21.598Z,96862.72
2023-03-05T07:50:24.962Z,96857.31
2023-03-05T07:52:29.066Z,96853.75
2023-03-05T07:54:31.827Z,96857.69
2023-03-05T07:56:36.450Z,96854.69
2023-03-05T07:58:39.257Z,96864.69
2023-03-05T08:00:42.417Z,96859.06
2023-03-05T08:02:46.070Z,96853.06
2023-03-05T08:04:49.033Z,96857.34
2023-03-05T08:06:52.180Z,96849.44
2023-03-05T08:08:56.627Z,96860.44
2023-03-05T08:11:04.577Z,96856.34
2023-03-05T08:13:07.938Z,96853.53
2023-03-05T08:15:11.723Z,96855.53
2023-03-05T08:17:14.422Z,96850.25
2023-03-05T08:19:17.245Z,96854.53
2023-03-05T08:21:22.102Z,96853.53
2023-03-05T08:23:24.849Z,96857.78
2023-03-05T08:25:29.482Z,96849.88
2023-03-05T08:27:32.418Z,96857.78
2023-03-05T08:29:35.401Z,96852.53
2023-03-05T08:31:38.769Z,96849.06
2023-03-05T08:33:41.716Z,96848.25
2023-03-05T08:35:44.606Z,96849.19
2023-03-05T08:37:47.546Z,96850.44
2023-03-05T08:39:50.457Z,96841.47
2023-03-05T08:41:54.792Z,96843.72
2023-03-05T08:43:57.780Z,96840.81
2023-03-05T08:46:01.450Z,96843.47
2023-03-05T08:48:04.330Z,96844.47
2023-03-05T08:50:08.009Z,96843.09
2023-03-05T08:52:11.040Z,96839.81
2023-03-05T08:54:13.972Z,96842.47
2023-03-05T08:56:16.926Z,96842.09
2023-03-05T08:58:21.092Z,96846.03
2023-03-05T09:00:24.415Z,96846.28
2023-03-05T09:02:27.265Z,96842.63
2023-03-05T09:04:30.073Z,96838.66
2023-03-05T09:06:34.383Z,96839.81
2023-03-05T09:08:38.013Z,96844.28
2023-03-05T09:10:42.448Z,96839.28
2023-03-05T09:12:45.437Z,96837.91
2023-03-05T09:14:49.782Z,96843.47
2023-03-05T09:16:52.580Z,96836.53
2023-03-05T09:18:55.531Z,96833.28
2023-03-05T09:20:58.804Z,96825.34
2023-03-05T09:23:01.606Z,96827.00
2023-03-05T09:25:04.538Z,96820.91
2023-03-05T09:27:07.299Z,96825.00
2023-03-05T09:29:10.791Z,96823.00
2023-03-05T09:31:15.182Z,96820.19
2023-03-05T09:33:17.974Z,96819.44
2023-03-05T09:35:20.799Z,96818.25
2023-03-05T09:37:23.741Z,96812.31
2023-03-05T09:39:26.945Z,96818.59
2023-03-05T09:41:37.220Z,96807.72
2023-03-05T09:43:50.415Z,96806.50
2023-03-05T09:46:05.513Z,96811.59
2023-03-05T09:48:18.122Z,96811.84
2023-03-05T09:50:36.204Z,96805.41
2023-03-05T09:52:44.910Z,96805.84
2023-03-05T09:54:53.593Z,96807.91
2023-03-05T09:56:59.417Z,96808.38
2023-03-05T09:59:06.608Z,96805.75
2023-03-05T10:01:12.458Z,96802.53
2023-03-05T10:03:22.595Z,96797.88
2023-03-05T10:05:33.778Z,96803.44
2023-03-05T10:07:41.176Z,96797.97
2023-03-05T10:09:49.879Z,96795.31
2023-03-05T10:11:58.048Z,96790.28
2023-03-05T10:14:00.857Z,96789.56
2023-03-05T10:16:19.187Z,96780.00
2023-03-05T10:18:34.069Z,96786.91
2023-03-05T10:20:48.986Z,96779.22
2023-03-05T10:23:16.589Z,96776.28
2023-03-05T10:25:25.015Z,96778.72
2023-03-05T10:27:41.331Z,96776.97
2023-03-05T10:30:02.515Z,96771.06
2023-03-05T10:32:17.127Z,96774.13
2023-03-05T10:34:51.604Z,96772.94
2023-03-05T10:37:13.369Z,96765.63
2023-03-05T10:39:37.649Z,96756.47
2023-03-05T10:41:49.301Z,96762.84
2023-03-05T10:43:59.515Z,96753.81
2023-03-05T10:46:04.533Z,96754.25
2023-03-05T10:48:16.030Z,96748.81
2023-03-05T10:50:23.626Z,96749.63
2023-03-05T10:52:32.628Z,96743.53
2023-03-05T10:54:36.053Z,96741.88
2023-03-05T10:56:39.085Z,96741.44
2023-03-05T10:58:42.106Z,96735.72
2023-03-05T11:00:59.708Z,96730.19
2023-03-05T11:03:05.883Z,96725.88
2023-03-05T11:05:45.456Z,96730.22
2023-03-05T11:07:49.611Z,96728.91
2023-03-05T11:10:05.044Z,96714.03
2023-03-05T11:12:16.928Z,96714.50
2023-03-05T11:14:31.322Z,96715.75
2023-03-05T11:16:36.457Z,96713.75
2023-03-05T11:18:39.226Z,96712.91
2023-03-05T11:20:42.322Z,96714.69
2023-03-05T11:23:05.329Z,96705.31
2023-03-05T11:25:18.714Z,96702.94
2023-03-05T11:27:32.638Z,96696.47
2023-03-05T11:29:36.139Z,96691.13
2023-03-05T11:31:38.925Z,96689.47
2023-03-05T11:33:56.364Z,96686.22
2023-03-05T11:36:24.374Z,96681.31
2023-03-05T11:38:29.505Z,96685.59
2023-03-05T11:40:35.600Z,96683.56
2023-03-05T11:42:41.276Z,96675.66
2023-03-05T11:44:49.142Z,96675.44
2023-03-05T11:46:55.533Z,96667.50
2023-03-05T11:48:59.769Z,96664.69
2023-03-05T11:51:08.644Z,96665.69
2023-03-05T11:53:16.264Z,96661.41
2023-03-05T11:55:22.619Z,96652.50
2023-03-05T11:57:26.876Z,96653.72
2023-03-05T11:59:34.768Z,96650.91
2023-03-05T12:01:43.658Z,96644.44
2023-03-05T12:03:46.681Z,96631.81
2023-03-05T12:05:54.104Z,96641.13
2023-03-05T12:08:02.160Z,96634.56
2023-03-05T12:10:06.140Z,96641.31
2023-03-05T12:12:26.206Z,96630.56
2023-03-05T12:14:37.546Z,96627.91
2023-03-05T12:16:43.185Z,96618.59
2023-03-05T12:18:53.097Z,96617.59
2023-03-05T12:21:07.060Z,96608.31
2023-03-05T12:23:14.652Z,96603.84
2023-03-05T12:25:29.562Z,96606.28
2023-03-05T12:27:40.018Z,96595.94
2023-03-05T12:29:46.121Z,96603.84
2023-03-05T12:31:49.190Z,96595.72
2023-03-05T12:33:52.340Z,96591.06
2023-03-05T12:35:55.181Z,96590.69
2023-03-05T12:38:17.210Z,96588.50
2023-03-05T12:40:28.549Z,96582.41
2023-03-05T12:42:54.726Z,96574.63
2023-03-05T12:45:39.617Z,96571.84
2023-03-05T12:47:43.331Z,96567.72
2023-03-05T12:49:48.563Z,96562.84
2023-03-05T12:51:53.568Z,96565.91
2023-03-05T12:53:56.951Z,96565.72
2023-03-05T12:56:03.897Z,96560.00
2023-03-05T12:58:14.400Z,96551.47
2023-03-05T13:00:22.689Z,96560.00
2023-03-05T13:02:32.750Z,96548.88
2023-03-05T13:04:45.507Z,96550.72
2023-03-05T13:06:58.364Z,96550.28
2023-03-05T13:09:03.357Z,96547.22
2023-03-05T13:11:09.533Z,96542.41
2023-03-05T13:13:16.572Z,96536.94
2023-03-05T13:15:19.398Z,96533.69
2023-03-05T13:17:34.756Z,96533.13
2023-03-05T13:19:37.676Z,96536.19
2023-03-05T13:21:40.529Z,96526.63
2023-03-05T13:23:57.743Z,96529.28
2023-03-05T13:26:03.061Z,96523.19
2023-03-05T13:28:11.010Z,96524.00
2023-03-05T13:30:34.682Z,96525.19
2023-03-05T13:32:37.807Z,96520.53
2023-03-05T13:34:48.134Z,96524.41
2023-03-05T13:36:57.215Z,96513.44
2023-03-05T13:39:00.510Z,96504.91
2023-03-05T13:41:06.154Z,96505.31
2023-03-05T13:43:13.636Z,96513.63
2023-03-05T13:45:25.543Z,96506.72
2023-03-05T13:47:32.205Z,96504.91
2023-03-05T13:49:35.333Z,96498.41
2023-03-05T13:51:46.592Z,96495.75
2023-03-05T13:53:50.499Z,96495.56
2023-03-05T13:55:56.347Z,96492.72
2023-03-05T13:57:59.111Z,96480.13
2023-03-05T14:00:03.387Z,96474.69
2023-03-05T14:02:18.395Z,96481.38
2023-03-05T14:04:25.335Z,96466.97
2023-03-05T14:06:30.782Z,96461.69
2023-03-05T14:08:34.243Z,96463.91
2023-03-05T14:10:39.009Z,96462.28
2023-03-05T14:12:43.595Z,96459.84
2023-03-05T14:14:46.959Z,96452.53
2023-03-05T14:16:50.120Z,96446.69
2023-03-05T14:18:57.820Z,96453.19
2023-03-05T14:21:07.598Z,96449.78
2023-03-05T14:23:27.319Z,96440.19
2023-03-05T14:25:34.915Z,96438.75
2023-03-05T14:27:38.054Z,96440.19
2023-03-05T14:29:46.371Z,96431.44
2023-03-05T14:31:52.729Z,96432.91
2023-03-05T14:34:01.926Z,96421.75
2023-03-05T14:36:06.789Z,96422.16
2023-03-05T14:38:24.217Z,96421.69
2023-03-05T14:40:32.136Z,96408.13
2023-03-05T14:42:38.720Z,96412.00
2023-03-05T14:44:43.502Z,96408.34
2023-03-05T14:46:50.624Z,96401.84
2023-03-05T14:48:54.282Z,96399.41
2023-03-05T14:50:58.189Z,96397.19
2023-03-05T14:53:04.935Z,96402.06
2023-03-05T14:55:08.380Z,96397.19
2023-03-05T14:57:17.590Z,96385.59
2023-03-05T14:59:22.098Z,96381.75
2023-03-05T15:01:25.394Z,96382.38
2023-03-05T15:03:28.526Z,96378.50
2023-03-05T15:05:31.737Z,96381.34
2023-03-05T15:07:34.887Z,96364.88
2023-03-05T15:09:39.069Z,96370.97
2023-03-05T15:11:41.873Z,96357.78
2023-03-05T15:13:44.817Z,96361.81
2023-03-05T15:15:53.494Z,96353.69
2023-03-05T15:17:57.435Z,96353.28
2023-03-05T15:20:00.674Z,96346.16
2023-03-05T15:22:03.510Z,96346.97
2023-03-05T15:24:06.840Z,96346.75
2023-03-05T15:26:15.268Z,96347.41
2023-03-05T15:28:18.349Z,96346.38
2023-03-05T15:30:24.224Z,96343.75
2023-03-05T15:32:28.883Z,96342.50
2023-03-05T15:34:33.637Z,96338.03
2023-03-05T15:36:36.413Z,96334.97
2023-03-05T15:38:41.516Z,96331.31
2023-03-05T15:40:45.929Z,96328.66
2023-03-05T15:42:50.422Z,96317.69
2023-03-05T15:44:53.166Z,96316.88
2023-03-05T15:46:56.789Z,96315.88
2023-03-05T15:48:59.982Z,96314.66
2023-03-05T15:51:02.921Z,96310.38
2023-03-05T15:53:05.665Z,96308.75
2023-03-05T15:55:09.805Z,96302.66
2023-03-05T15:57:13.880Z,96306.31
2023-03-05T15:59:18.100Z,96304.28
2023-03-05T16:01:22.299Z,96299.41
2023-03-05T16:03:25.189Z,96301.03
2023-03-05T16:05:28.019Z,96302.88
2023-03-05T16:07:32.926Z,96299.41
2023-03-05T16:09:39.652Z,96304.50
2023-03-05T16:11:47.779Z,96299.00
2023-03-05T16:13:51.461Z,96299.81
2023-03-05T16:15:56.578Z,96299.00
2023-03-05T16:18:01.859Z,96292.91
2023-03-05T16:20:06.784Z,96299.00
2023-03-05T16:22:09.830Z,96292.09
2023-03-05T16:24:13.252Z,96297.38
2023-03-05T16:26:16.216Z,96294.50
2023-03-05T16:28:19.235Z,96286.59
2023-03-05T16:30:22.472Z,96302.06
2023-03-05T16:32:27.011Z,96294.13
2023-03-05T16:34:29.812Z,96286.38
2023-03-05T16:36:35.347Z,96291.06
2023-03-05T16:38:38.194Z,96280.69
2023-03-05T16:41:05.856Z,96288.63
2023-03-05T16:43:03.692Z,96292.09
2023-03-05T16:45:08.109Z,96287.00
2023-03-05T16:47:12.562Z,96278.25
2023-03-05T16:49:17.766Z,96282.13
2023-03-05T16:51:21.189Z,96281.31
2023-03-05T16:53:23.979Z,96278.91
2023-03-05T16:55:26.747Z,96283.53
2023-03-05T16:57:29.827Z,96289.66
2023-03-05T16:59:32.580Z,96285.19
2023-03-05T17:01:35.389Z,96285.19
2023-03-05T17:03:41.272Z,96282.97
2023-03-05T17:05:45.413Z,96290.09
2023-03-05T17:07:48.327Z,96283.78
2023-03-05T17:09:52.767Z,96286.63
2023-03-05T17:11:55.992Z,96280.72
2023-03-05T17:13:58.833Z,96287.00
2023-03-05T17:16:01.814Z,96286.41
2023-03-05T17:18:05.519Z,96286.63
2023-03-05T17:20:10.159Z,96286.81
2023-03-05T17:22:16.030Z,96285.59
2023-03-05T17:24:21.554Z,96291.91
2023-03-05T17:26:25.948Z,96287.63
2023-03-05T17:28:28.861Z,96285.41
2023-03-05T17:30:33.310Z,96290.47
2023-03-05T17:32:36.354Z,96284.78
2023-03-05T17:34:39.866Z,96287.59
2023-03-05T17:36:42.686Z,96290.25
2023-03-05T17:38:53.170Z,96290.25
2023-03-05T17:40:56.440Z,96284.16
2023-03-05T17:42:59.832Z,96290.47
2023-03-05T17:45:04.515Z,96296.94
2023-03-05T17:47:07.368Z,96288.81
2023-03-05T17:49:10.107Z,96287.56
2023-03-05T17:51:14.775Z,96292.06
2023-03-05T17:53:17.676Z,96292.84
2023-03-05T17:55:24.586Z,96296.53
2023-03-05T17:57:27.808Z,96289.63
2023-03-05T17:59:30.589Z,96298.16
2023-03-05T18:01:34.832Z,96297.34
2023-03-05T18:03:38.502Z,96287.19
2023-03-05T18:05:41.918Z,96288.81
2023-03-05T18:07:44.837Z,96293.66
2023-03-05T18:09:47.685Z,96289.00
2023-03-05T18:11:52.956Z,96298.13
2023-03-05T18:13:57.923Z,96294.06
2023-03-05T18:16:01.624Z,96300.16
2023-03-05T18:18:04.709Z,96292.25
2023-03-05T18:20:09.469Z,96292.84
2023-03-05T18:22:12.180Z,96290.41
2023-03-05T18:24:14.963Z,96291.44
2023-03-05T18:26:18.572Z,96293.03
2023-03-05T18:28:22.843Z,96293.66
2023-03-05T18:30:25.918Z,96287.56
2023-03-05T18:32:29.596Z,96290.00
2023-03-05T18:34:32.533Z,96290.19
2023-03-05T18:36:35.902Z,96291.59
2023-03-05T18:38:39.276Z,96293.41
2023-03-05T18:40:43.751Z,96290.78
2023-03-05T18:42:46.603Z,96285.09
2023-03-05T18:44:50.722Z,96293.00
2023-03-05T18:46:53.741Z,96291.19
2023-03-05T18:48:56.585Z,96284.28
2023-03-05T18:51:01.781Z,96278.41
2023-03-05T18:53:05.004Z,96287.13
2023-03-05T18:55:15.261Z,96282.47
2023-03-05T18:57:18.479Z,96276.38
2023-03-05T18:59:21.777Z,96281.03
2023-03-05T19:01:26.176Z,96275.75
2023-03-05T19:03:29.132Z,96275.75
2023-03-05T19:05:32.176Z,96282.06
2023-03-05T19:07:35.410Z,96281.03
2023-03-05T19:09:52.126Z,96284.47
2023-03-05T19:11:54.895Z,96277.75
2023-03-05T19:13:58.517Z,96275.94
2023-03-05T19:16:02.411Z,96280.63
2023-03-05T19:18:06.845Z,96275.34
2023-03-05T19:20:13.381Z,96270.06
2023-03-05T19:22:16.579Z,96271.09
2023-03-05T19:24:20.158Z,96272.91
2023-03-05T19:26:23.125Z,96273.13
2023-03-05T19:28:27.673Z,96267.84
2023-03-05T19:30:30.465Z,96262.94
2023-03-05T19:32:33.539Z,96263.56
2023-03-05T19:34:38.095Z,96265.38
2023-03-05T19:36:40.862Z,96261.91
2023-03-05T19:38:43.996Z,96260.31
2023-03-05T19:40:47.747Z,96262.94
2023-03-05T19:42:50.744Z,96250.38
2023-03-05T19:44:53.590Z,96257.47
2023-03-05T19:46:56.352Z,96255.03
2023-03-05T19:48:59.848Z,96258.69
2023-03-05T19:51:04.453Z,96254.22
2023-03-05T19:53:07.387Z,96263.13
2023-03-05T19:55:11.377Z,96260.31
2023-03-05T19:57:15.006Z,96252.78
2023-03-05T19:59:21.011Z,96246.50
2023-03-05T20:01:26.258Z,96256.25
2023-03-05T20:03:29.130Z,96251.78
2023-03-05T20:05:31.905Z,96247.31
2023-03-05T20:07:36.177Z,96246.09
2023-03-05T20:09:39.176Z,96250.56
2023-03-05T20:11:42.353Z,96261.13
2023-03-05T20:13:45.353Z,96251.38
2023-03-05T20:15:48.375Z,96251.56
2023-03-05T20:17:53.698Z,96254.22
2023-03-05T20:19:58.989Z,96246.50
2023-03-05T20:22:02.271Z,96237.94
2023-03-05T20:24:09.998Z,96241.59
2023-03-05T20:26:13.024Z,96246.88
2023-03-05T20:28:16.555Z,96251.75
2023-03-05T20:30:19.831Z,96240.19
2023-03-05T20:32:24.107Z,96241.00
2023-03-05T20:34:27.173Z,96243.00
2023-03-05T20:36:30.223Z,96236.28
2023-03-05T20:38:33.380Z,96239.53
2023-03-05T20:40:37.873Z,96239.34
2023-03-05T20:42:40.707Z,96237.91
2023-03-05T20:44:44.890Z,96231.03
2023-03-05T20:46:59.553Z,96232.63
2023-03-05T20:49:04.194Z,96228.59
2023-03-05T20:51:14.823Z,96233.03
2023-03-05T20:53:18.100Z,96231.63
2023-03-05T20:55:21.186Z,96225.34
2023-03-05T20:57:26.301Z,96225.75
2023-03-05T20:59:29.127Z,96230.22
2023-03-05T21:01:33.850Z,96239.31
2023-03-05T21:03:38.748Z,96235.03
2023-03-05T21:05:41.599Z,96222.88
2023-03-05T21:07:45.450Z,96230.97
2023-03-05T21:09:48.453Z,96228.16
2023-03-05T21:11:51.607Z,96230.38
2023-03-05T21:13:56.292Z,96229.78
2023-03-05T21:15:59.056Z,96224.50
2023-03-05T21:18:02.045Z,96225.91
2023-03-05T21:20:05.917Z,96221.44
2023-03-05T21:22:08.916Z,96222.47
2023-03-05T21:24:11.890Z,96210.28
2023-03-05T21:26:14.739Z,96211.09
2023-03-05T21:28:18.636Z,96211.53
2023-03-05T21:30:24.001Z,96213.16
2023-03-05T21:32:27.601Z,96205.84
2023-03-05T21:34:30.742Z,96205.84
2023-03-05T21:36:33.838Z,96199.56
2023-03-05T21:38:37.268Z,96196.31
2023-03-05T21:40:43.555Z,96203.22
2023-03-05T21:42:47.999Z,96191.66
2023-03-05T21:44:50.862Z,96194.69
2023-03-05T21:46:55.012Z,96188.00
2023-03-05T21:48:57.996Z,96194.91
2023-03-05T21:51:00.987Z,96185.53
2023-03-05T21:53:03.967Z,96183.72
2023-03-05T21:55:07.706Z,96180.09
2023-03-05T21:57:12.058Z,96183.91
2023-03-05T21:59:14.960Z,96184.13
2023-03-05T22:01:20.860Z,96179.84
2023-03-05T22:03:25.544Z,96178.84
2023-03-05T22:05:28.608Z,96172.34
2023-03-05T22:07:31.612Z,96178.63
